createdAt,value
2022-12-10T00:01:18.259Z,22.53
2022-12-10T00:03:46.070Z,22.23
2022-12-10T00:06:16.711Z,21.43
2022-12-10T00:08:44.096Z,20.70
2022-12-10T00:11:14.019Z,19.00
2022-12-10T00:13:41.608Z,19.07
2022-12-10T00:16:11.789Z,19.97
2022-12-10T00:18:39.168Z,19.93
2022-12-10T00:21:12.166Z,20.40
2022-12-10T00:23:39.852Z,20.10
2022-12-10T00:26:16.375Z,18.60
2022-12-10T00:28:45.309Z,20.40
2022-12-10T00:31:15.193Z,19.57
2022-12-10T00:33:43.335Z,19.63
2022-12-10T00:36:19.729Z,18.97
2022-12-10T00:38:47.734Z,17.90
2022-12-10T00:41:15.461Z,18.83
2022-12-10T00:43:43.205Z,18.60
2022-12-10T00:46:13.479Z,19.20
2022-12-10T00:48:42.119Z,19.50
2022-12-10T00:51:14.475Z,16.67
2022-12-10T00:53:43.574Z,18.07
2022-12-10T00:56:12.497Z,19.23
2022-12-10T00:58:40.139Z,18.83
2022-12-10T01:01:14.448Z,19.20
2022-12-10T01:03:41.688Z,19.47
2022-12-10T01:06:23.685Z,17.77
2022-12-10T01:08:52.065Z,19.37
2022-12-10T01:11:20.824Z,19.10
2022-12-10T01:13:48.899Z,19.57
2022-12-10T01:16:18.680Z,20.77
2022-12-10T01:18:46.114Z,21.47
2022-12-10T01:21:18.640Z,21.57
2022-12-10T01:23:48.144Z,22.13
2022-12-10T01:26:18.064Z,20.23
2022-12-10T01:28:45.506Z,19.80
2022-12-10T01:31:17.227Z,21.20
2022-12-10T01:33:44.738Z,22.73
2022-12-10T01:36:15.038Z,20.90
2022-12-10T01:38:44.046Z,21.57
2022-12-10T01:41:20.111Z,21.67
2022-12-10T01:44:02.864Z,22.17
2022-12-10T01:46:32.363Z,22.37
2022-12-10T01:49:01.319Z,19.37
2022-12-10T01:51:32.209Z,18.27
2022-12-10T01:53:59.754Z,19.23
2022-12-10T01:56:26.611Z,19.00
2022-12-10T01:58:56.597Z,19.10
2022-12-10T02:01:51.424Z,18.53
2022-12-10T02:04:26.483Z,20.57
2022-12-10T02:07:22.513Z,17.87
2022-12-10T02:09:53.332Z,19.10
2022-12-10T02:12:29.264Z,19.63
2022-12-10T02:15:03.568Z,19.63
2022-12-10T02:17:44.157Z,19.50
2022-12-10T02:20:15.759Z,21.27
2022-12-10T02:22:51.766Z,20.30
2022-12-10T02:25:24.603Z,17.13
2022-12-10T02:28:14.047Z,18.10
2022-12-10T02:30:43.667Z,19.80
2022-12-10T02:33:13.194Z,18.77
2022-12-10T02:35:42.928Z,18.73
2022-12-10T02:38:20.678Z,17.43
2022-12-10T02:40:53.562Z,17.07
2022-12-10T02:43:23.497Z,17.47
2022-12-10T02:45:52.082Z,16.27
2022-12-10T02:48:20.562Z,17.77
2022-12-10T02:50:47.645Z,17.60
2022-12-10T02:53:14.612Z,17.03
2022-12-10T02:56:03.566Z,16.27
2022-12-10T02:59:03.902Z,17.17
2022-12-10T03:02:02.219Z,17.70
2022-12-10T03:05:02.051Z,15.90
2022-12-10T03:07:46.397Z,16.13
2022-12-10T03:10:22.449Z,15.77
2022-12-10T03:12:55.923Z,16.67
2022-12-10T03:15:25.521Z,16.57
2022-12-10T03:17:55.078Z,15.83
2022-12-10T03:20:24.928Z,16.17
2022-12-10T03:22:52.685Z,15.37
2022-12-10T03:25:25.085Z,14.67
2022-12-10T03:27:55.966Z,14.20
2022-12-10T03:30:23.867Z,14.27
2022-12-10T03:32:51.599Z,14.90
2022-12-10T03:35:21.283Z,14.43
2022-12-10T03:37:50.408Z,14.10
2022-12-10T03:40:21.359Z,15.27
2022-12-10T03:42:48.524Z,13.80
2022-12-10T03:45:15.643Z,15.40
2022-12-10T03:47:42.884Z,13.83
2022-12-10T03:50:11.543Z,14.77
2022-12-10T03:52:39.536Z,13.90
2022-12-10T03:56:02.371Z,13.03
2022-12-10T03:58:48.130Z,13.53
2022-12-10T04:01:16.770Z,14.77
2022-12-10T04:03:44.276Z,15.97
2022-12-10T04:06:17.822Z,15.73
2022-12-10T04:08:45.292Z,14.43
2022-12-10T04:11:14.091Z,16.27
2022-12-10T04:13:59.481Z,16.07
2022-12-10T04:16:30.319Z,16.30
2022-12-10T04:19:03.701Z,16.40
2022-12-10T04:21:51.455Z,16.37
2022-12-10T04:24:40.807Z,15.73
2022-12-10T04:27:22.689Z,14.77
2022-12-10T04:29:50.886Z,16.03
2022-12-10T04:32:19.055Z,16.67
2022-12-10T04:34:46.384Z,15.60
2022-12-10T04:37:15.816Z,15.83
2022-12-10T04:39:42.778Z,16.57
2022-12-10T04:42:10.038Z,15.63
2022-12-10T04:44:37.206Z,15.43
2022-12-10T04:47:05.669Z,15.53
2022-12-10T04:49:32.989Z,17.00
2022-12-10T04:52:00.145Z,17.63
2022-12-10T04:54:27.565Z,17.07
2022-12-10T04:56:54.741Z,15.97
2022-12-10T04:59:21.602Z,19.23
2022-12-10T05:01:48.762Z,19.10
2022-12-10T05:04:18.810Z,16.87
2022-12-10T05:06:48.351Z,16.60
2022-12-10T05:09:15.269Z,17.10
2022-12-10T05:11:42.442Z,17.13
2022-12-10T05:14:12.265Z,18.20
2022-12-10T05:16:39.132Z,19.90
2022-12-10T05:19:06.036Z,19.87
2022-12-10T05:21:53.204Z,19.60
2022-12-10T05:24:20.089Z,18.50
2022-12-10T05:26:47.602Z,17.70
2022-12-10T05:29:14.742Z,18.17
2022-12-10T05:31:41.653Z,17.17
2022-12-10T05:34:11.658Z,17.47
2022-12-10T05:36:38.556Z,18.13
2022-12-10T05:39:05.517Z,17.73
2022-12-10T05:41:36.665Z,17.87
2022-12-10T05:44:04.288Z,19.10
2022-12-10T05:46:32.787Z,18.73
2022-12-10T05:49:01.383Z,17.97
2022-12-10T05:51:31.653Z,19.00
2022-12-10T05:53:59.939Z,19.67
2022-12-10T05:56:27.239Z,19.87
2022-12-10T05:58:58.160Z,19.30
2022-12-10T06:01:27.699Z,20.00
2022-12-10T06:03:55.195Z,19.83
2022-12-10T06:06:28.457Z,20.67
2022-12-10T06:08:56.098Z,20.87
2022-12-10T06:11:23.044Z,21.37
2022-12-10T06:13:55.813Z,23.50
2022-12-10T06:16:24.000Z,23.40
2022-12-10T06:18:51.536Z,27.43
2022-12-10T06:21:19.340Z,27.20
2022-12-10T06:23:47.625Z,27.33
2022-12-10T06:26:20.625Z,24.73
2022-12-10T06:28:48.595Z,25.43
2022-12-10T06:31:16.281Z,25.90
2022-12-10T06:33:43.966Z,25.87
2022-12-10T06:36:14.214Z,28.03
2022-12-10T06:38:41.224Z,26.43
2022-12-10T06:41:10.762Z,24.77
2022-12-10T06:43:41.742Z,22.77
2022-12-10T06:46:12.819Z,22.83
2022-12-10T06:48:40.193Z,24.67
2022-12-10T06:51:08.013Z,24.07
2022-12-10T06:53:36.499Z,26.17
2022-12-10T06:56:04.877Z,24.97
2022-12-10T06:58:32.904Z,23.70
2022-12-10T07:01:21.427Z,22.20
2022-12-10T07:03:56.249Z,19.90
2022-12-10T07:06:24.594Z,21.50
2022-12-10T07:08:51.828Z,25.80
2022-12-10T07:11:21.483Z,23.57
2022-12-10T07:13:48.407Z,23.10
2022-12-10T07:16:27.494Z,20.53
2022-12-10T07:18:56.184Z,22.13
2022-12-10T07:21:24.965Z,22.13
2022-12-10T07:23:54.894Z,21.20
2022-12-10T07:26:22.718Z,25.03
2022-12-10T07:28:53.428Z,22.30
2022-12-10T07:31:21.788Z,20.83
2022-12-10T07:33:49.810Z,20.20
2022-12-10T07:36:17.140Z,20.13
2022-12-10T07:38:45.575Z,19.80
2022-12-10T07:41:14.206Z,21.30
2022-12-10T07:43:43.539Z,24.07
2022-12-10T07:46:17.371Z,21.67
2022-12-10T07:48:45.758Z,22.63
2022-12-10T07:51:13.546Z,22.27
2022-12-10T07:53:40.772Z,24.53
2022-12-10T07:56:10.172Z,22.83
2022-12-10T07:58:37.598Z,24.30
2022-12-10T08:01:09.734Z,23.93
2022-12-10T08:03:37.009Z,23.57
2022-12-10T08:06:10.086Z,25.97
2022-12-10T08:08:38.551Z,24.27
2022-12-10T08:11:05.924Z,25.10
2022-12-10T08:13:33.582Z,27.07
2022-12-10T08:16:14.486Z,25.67
2022-12-10T08:18:42.153Z,27.63
2022-12-10T08:21:12.481Z,28.60
2022-12-10T08:23:39.669Z,31.10
2022-12-10T08:26:08.696Z,38.63
2022-12-10T08:28:36.274Z,45.77
2022-12-10T08:31:05.262Z,33.87
2022-12-10T08:33:35.815Z,32.40
2022-12-10T08:36:04.893Z,34.43
2022-12-10T08:38:32.845Z,35.17
2022-12-10T08:40:59.971Z,34.83
2022-12-10T08:43:26.925Z,34.37
2022-12-10T08:45:55.587Z,29.97
2022-12-10T08:48:22.925Z,28.37
2022-12-10T08:50:49.776Z,27.17
2022-12-10T08:53:16.696Z,27.53
2022-12-10T08:55:48.927Z,28.93
2022-12-10T08:58:16.119Z,30.50
2022-12-10T09:00:43.237Z,31.47
2022-12-10T10:43:46.124Z,20.50
2022-12-10T10:49:27.915Z,21.53
2022-12-10T10:52:00.375Z,21.70
2022-12-10T10:54:49.247Z,19.73
2022-12-10T10:57:22.813Z,18.20
2022-12-10T10:59:52.376Z,17.33
2022-12-10T11:02:30.814Z,17.90
2022-12-10T11:05:01.353Z,14.97
2022-12-10T11:07:42.043Z,14.57
2022-12-10T11:10:22.359Z,14.07
2022-12-10T11:12:58.119Z,16.77
2022-12-10T11:15:25.351Z,15.13
2022-12-10T11:17:55.218Z,14.33
2022-12-10T11:20:24.874Z,14.47
2022-12-10T11:23:04.540Z,14.43
2022-12-10T11:25:38.310Z,14.67
2022-12-10T11:29:07.168Z,14.43
2022-12-10T11:31:43.599Z,13.27
2022-12-10T11:34:10.407Z,13.57
2022-12-10T11:37:07.212Z,11.43
2022-12-10T11:39:39.901Z,11.03
2022-12-10T11:42:27.889Z,10.33
2022-12-10T11:45:09.152Z,10.17
2022-12-10T11:47:43.634Z,10.90
2022-12-10T11:50:29.272Z,9.87
2022-12-10T11:53:05.549Z,10.90
2022-12-10T11:56:00.811Z,11.07
2022-12-10T11:58:59.943Z,10.17
2022-12-10T12:01:49.860Z,11.00
2022-12-10T12:04:31.529Z,12.07
2022-12-10T12:07:22.032Z,13.60
2022-12-10T12:10:26.502Z,14.17
2022-12-10T12:13:02.245Z,14.57
2022-12-10T12:16:04.180Z,13.93
2022-12-10T12:18:49.837Z,16.10
2022-12-10T12:21:18.024Z,15.37
2022-12-10T12:24:02.073Z,15.53
2022-12-10T12:26:34.440Z,13.83
2022-12-10T12:29:19.058Z,15.13
2022-12-10T12:32:05.343Z,13.23
2022-12-10T12:35:00.850Z,13.73
2022-12-10T12:37:39.779Z,15.33
2022-12-10T12:40:40.656Z,12.77
2022-12-10T12:43:17.458Z,13.43
2022-12-10T12:45:49.178Z,14.60
2022-12-10T12:48:34.111Z,12.13
2022-12-10T12:51:22.661Z,11.40
2022-12-10T12:53:50.325Z,12.83
2022-12-10T12:56:54.259Z,12.40
2022-12-10T13:00:04.174Z,12.87
2022-12-10T13:03:02.983Z,14.03
2022-12-10T13:05:34.195Z,15.43
2022-12-10T13:08:29.492Z,12.63
2022-12-10T13:11:11.605Z,12.53
2022-12-10T13:13:41.759Z,11.53
2022-12-10T13:16:39.676Z,13.77
2022-12-10T13:19:22.031Z,12.23
2022-12-10T13:21:52.168Z,12.63
2022-12-10T13:24:46.151Z,12.93
2022-12-10T13:27:12.957Z,12.80
2022-12-10T13:29:53.658Z,13.40
2022-12-10T13:32:43.101Z,14.43
2022-12-10T13:35:10.163Z,14.23
2022-12-10T13:37:54.278Z,13.50
2022-12-10T13:40:52.059Z,12.70
2022-12-10T13:43:57.990Z,13.63
2022-12-10T13:46:50.851Z,14.97
2022-12-10T13:49:27.056Z,15.60
2022-12-10T13:52:08.198Z,15.30
2022-12-10T13:54:43.974Z,14.33
2022-12-10T13:57:33.537Z,14.07
2022-12-10T14:00:10.216Z,14.93
2022-12-10T14:02:58.280Z,21.13
2022-12-10T14:05:54.275Z,17.27
2022-12-10T14:08:28.613Z,20.53
2022-12-10T14:10:58.854Z,21.47
2022-12-10T14:13:48.635Z,19.60
2022-12-10T14:16:16.834Z,23.53
2022-12-10T14:18:47.154Z,21.80
2022-12-10T14:21:16.512Z,25.83
2022-12-10T14:23:54.597Z,32.13
2022-12-10T14:26:30.323Z,41.27
2022-12-10T14:29:24.215Z,35.20
2022-12-10T14:31:56.067Z,38.50
2022-12-10T14:34:27.717Z,39.10
2022-12-10T14:37:03.116Z,25.97
2022-12-10T14:39:34.317Z,26.63
2022-12-10T14:42:04.816Z,30.70
2022-12-10T14:44:35.050Z,28.50
2022-12-10T14:47:16.127Z,31.27
2022-12-10T14:49:47.128Z,31.03
2022-12-10T14:52:18.477Z,30.00
2022-12-10T14:54:47.093Z,31.77
2022-12-10T14:57:24.099Z,32.63
2022-12-10T15:00:08.475Z,32.27
2022-12-10T15:02:39.453Z,29.47
2022-12-10T15:05:12.300Z,30.47
2022-12-10T15:07:41.110Z,28.73
2022-12-10T15:10:18.864Z,28.50
2022-12-10T15:12:49.468Z,29.43
2022-12-10T15:15:25.278Z,30.83
2022-12-10T15:18:07.238Z,33.97
2022-12-10T15:20:42.956Z,39.37
2022-12-10T15:23:35.098Z,38.87
2022-12-10T15:26:15.110Z,32.60
2022-12-10T15:28:42.937Z,35.47
2022-12-10T15:31:27.914Z,36.63
2022-12-10T15:34:00.828Z,34.33
2022-12-10T15:36:36.635Z,37.67
2022-12-10T15:39:17.405Z,41.80
2022-12-10T15:41:47.391Z,40.63
2022-12-10T15:44:21.089Z,43.10
2022-12-10T15:46:52.583Z,43.63
2022-12-10T15:49:19.426Z,43.17
2022-12-10T15:51:46.403Z,42.77
2022-12-10T15:54:35.048Z,44.47
2022-12-10T15:57:12.513Z,35.50
2022-12-10T15:59:39.434Z,29.47
2022-12-10T16:02:18.412Z,34.70
2022-12-10T16:04:45.332Z,41.57
2022-12-10T16:07:12.222Z,42.23
2022-12-10T16:09:39.085Z,42.63
2022-12-10T16:12:06.033Z,37.53
2022-12-10T16:14:32.993Z,41.37
2022-12-10T16:16:59.920Z,49.63
2022-12-10T16:19:26.983Z,51.33
2022-12-10T16:21:58.161Z,41.90
2022-12-10T16:24:25.039Z,32.83
2022-12-10T16:26:51.906Z,31.47
2022-12-10T16:29:23.970Z,24.70
2022-12-10T16:31:51.217Z,22.30
2022-12-10T16:34:18.119Z,18.90
2022-12-10T16:36:44.955Z,20.20
2022-12-10T16:39:12.828Z,20.13
2022-12-10T16:41:39.904Z,21.13
2022-12-10T16:44:06.802Z,18.73
2022-12-10T16:46:35.592Z,18.37
2022-12-10T16:49:03.398Z,18.00
2022-12-10T16:51:31.781Z,17.13
2022-12-10T16:54:00.575Z,15.67
2022-12-10T16:56:27.682Z,14.20
2022-12-10T16:58:55.855Z,14.27
2022-12-10T17:01:32.027Z,15.67
2022-12-10T17:04:00.232Z,15.57
2022-12-10T17:06:29.529Z,17.73
2022-12-10T17:08:56.510Z,15.70
2022-12-10T17:11:45.084Z,15.93
2022-12-10T17:14:24.001Z,20.37
2022-12-10T17:16:53.064Z,18.13
2022-12-10T17:19:20.984Z,21.00
2022-12-10T17:21:48.008Z,21.10
2022-12-10T17:24:17.033Z,21.03
2022-12-10T17:26:46.141Z,17.40
2022-12-10T17:29:40.026Z,18.10
2022-12-10T17:32:12.371Z,18.70
2022-12-10T17:34:39.420Z,19.17
2022-12-10T17:37:12.538Z,14.60
2022-12-10T17:39:39.544Z,14.40
2022-12-10T17:42:08.415Z,14.40
2022-12-10T17:44:36.312Z,15.33
2022-12-10T17:47:20.232Z,15.30
2022-12-10T17:49:50.521Z,18.87
2022-12-10T17:52:17.634Z,18.17
2022-12-10T17:54:44.581Z,22.23
2022-12-10T17:57:16.727Z,18.20
2022-12-10T17:59:43.666Z,16.50
2022-12-10T18:02:11.933Z,16.33
2022-12-10T18:04:39.755Z,13.47
2022-12-10T18:07:18.279Z,14.30
2022-12-10T18:09:46.385Z,16.17
2022-12-10T18:12:13.234Z,16.20
2022-12-10T18:14:40.471Z,16.73
2022-12-10T18:17:13.248Z,16.80
2022-12-10T18:19:44.369Z,17.83
2022-12-10T18:22:13.005Z,16.30
2022-12-10T18:24:40.455Z,22.53
2022-12-10T18:27:09.475Z,18.60
2022-12-10T18:29:36.417Z,25.77
2022-12-10T18:32:03.900Z,22.13
2022-12-10T18:34:30.865Z,22.30
2022-12-10T18:36:58.116Z,23.90
2022-12-10T18:39:29.281Z,19.07
2022-12-10T18:41:56.103Z,19.73
2022-12-10T18:44:25.291Z,15.67
2022-12-10T18:46:54.236Z,16.87
2022-12-10T18:49:23.057Z,16.67
2022-12-10T18:51:50.575Z,17.30
2022-12-10T18:54:18.679Z,16.80
2022-12-10T18:56:58.038Z,17.23
2022-12-10T18:59:31.455Z,17.50
2022-12-10T19:01:58.400Z,17.80
2022-12-10T19:04:25.292Z,16.90
2022-12-10T19:06:52.391Z,18.90
2022-12-10T19:09:20.019Z,15.97
2022-12-10T19:11:48.608Z,15.27
2022-12-10T19:14:16.628Z,17.37
2022-12-10T19:16:44.036Z,18.40
2022-12-10T19:19:13.294Z,22.03
2022-12-10T19:21:40.831Z,19.23
2022-12-10T19:24:08.454Z,19.33
2022-12-10T19:26:38.536Z,16.97
2022-12-10T19:29:20.331Z,16.43
2022-12-10T19:31:48.027Z,15.10
2022-12-10T19:34:16.564Z,16.13
2022-12-10T19:36:53.166Z,14.53
2022-12-10T19:39:23.297Z,14.70
2022-12-10T19:41:51.685Z,17.47
2022-12-10T19:44:19.048Z,18.93
2022-12-10T19:46:46.105Z,21.07
2022-12-10T19:49:15.570Z,19.07
2022-12-10T19:51:43.555Z,19.50
2022-12-10T19:54:12.325Z,20.37
2022-12-10T19:56:39.725Z,17.07
2022-12-10T19:59:20.428Z,13.37
2022-12-10T20:01:47.884Z,10.80
2022-12-10T20:04:16.008Z,11.83
2022-12-10T20:06:45.574Z,12.17
2022-12-10T20:09:27.445Z,12.57
2022-12-10T20:11:55.517Z,12.43
2022-12-10T20:14:23.848Z,10.97
2022-12-10T20:16:52.115Z,9.30
2022-12-10T20:19:23.607Z,9.10
2022-12-10T20:21:53.956Z,9.97
2022-12-10T20:24:21.541Z,9.90
2022-12-10T20:26:49.698Z,7.90
2022-12-10T20:29:26.070Z,8.50
2022-12-10T20:31:55.731Z,8.47
2022-12-10T20:34:24.959Z,7.30
2022-12-10T20:36:56.361Z,6.90
2022-12-10T20:39:26.395Z,6.77
2022-12-10T20:41:54.149Z,6.50
2022-12-10T20:44:22.477Z,7.00
2022-12-10T20:46:50.928Z,6.03
2022-12-10T20:49:20.255Z,6.70
2022-12-10T20:51:47.367Z,5.97
2022-12-10T20:54:14.356Z,6.27
2022-12-10T20:56:41.472Z,6.73
2022-12-10T20:59:08.393Z,6.50
2022-12-10T21:01:35.443Z,5.03
2022-12-10T21:04:02.576Z,5.63
2022-12-10T21:06:30.690Z,4.40
2022-12-10T21:08:57.808Z,5.23
2022-12-10T21:11:28.063Z,5.53
2022-12-10T21:13:55.026Z,4.43
2022-12-10T21:16:25.410Z,5.30
2022-12-10T21:18:54.136Z,5.00
2022-12-10T21:21:24.273Z,4.73
2022-12-10T21:23:51.176Z,5.17
2022-12-10T21:26:18.249Z,5.10
2022-12-10T21:28:45.236Z,4.90
2022-12-10T21:31:20.921Z,5.87
2022-12-10T21:33:48.036Z,4.80
2022-12-10T21:36:16.309Z,4.63
2022-12-10T21:38:43.450Z,4.60
2022-12-10T21:41:33.014Z,4.93
2022-12-10T21:43:59.834Z,5.40
2022-12-10T21:46:26.709Z,6.17
2022-12-10T21:48:53.644Z,5.70
2022-12-10T21:51:20.537Z,4.67
2022-12-10T21:53:47.680Z,5.57
2022-12-10T21:56:15.113Z,5.10
2022-12-10T21:58:43.287Z,4.97
2022-12-10T22:01:20.213Z,4.30
2022-12-10T22:03:56.248Z,4.50
2022-12-10T22:06:28.702Z,4.10
2022-12-10T22:08:56.200Z,4.97
2022-12-10T22:11:23.034Z,4.57
2022-12-10T22:13:53.689Z,5.73
2022-12-10T22:16:20.620Z,8.83
2022-12-10T22:18:47.564Z,6.80
2022-12-10T22:21:15.028Z,6.57
2022-12-10T22:23:41.962Z,4.83
2022-12-10T22:26:09.499Z,6.30
2022-12-10T22:28:36.529Z,5.00
2022-12-10T22:31:07.666Z,4.97
2022-12-10T22:33:35.589Z,5.90
2022-12-10T22:36:03.180Z,5.17
2022-12-10T22:38:30.185Z,4.70
2022-12-10T22:40:57.079Z,5.90
2022-12-10T22:43:49.990Z,4.17
2022-12-10T22:46:11.348Z,4.83
2022-12-10T22:48:38.357Z,5.27
2022-12-10T22:51:07.354Z,5.83
2022-12-10T22:53:34.873Z,4.87
2022-12-10T22:56:06.978Z,4.57
2022-12-10T22:58:33.910Z,4.60
2022-12-10T23:01:00.958Z,5.10
2022-12-10T23:03:28.059Z,4.80
2022-12-10T23:05:56.066Z,4.90
2022-12-10T23:08:24.124Z,5.30
2022-12-10T23:10:52.063Z,4.83
2022-12-10T23:13:21.612Z,4.90
2022-12-10T23:15:52.179Z,4.80
2022-12-10T23:18:20.384Z,5.30
2022-12-10T23:20:50.248Z,5.83
2022-12-10T23:23:20.727Z,5.13
2022-12-10T23:25:47.611Z,5.07
2022-12-10T23:28:15.232Z,5.57
2022-12-10T23:30:42.591Z,5.57
2022-12-10T23:33:09.653Z,5.60
2022-12-10T23:35:43.217Z,5.40
2022-12-10T23:38:10.844Z,6.10
2022-12-10T23:40:42.511Z,5.63
2022-12-10T23:43:11.261Z,5.60
2022-12-10T23:45:40.745Z,5.80
2022-12-10T23:48:07.903Z,4.43
2022-12-10T23:50:35.029Z,6.67
2022-12-10T23:53:03.924Z,6.70
2022-12-10T23:55:30.845Z,5.87
2022-12-10T23:57:57.752Z,6.27
